sensor_id;sensor_type;location;lat;lon;timestamp;P1;durP1;ratioP1;P2;durP2;ratioP2
37777;SDS011;23615;51.506;7.678;2023-07-13T00:00:12;3.07;;;0.33;;
37777;SDS011;23615;51.506;7.678;2023-07-13T00:02:41;1.93;;;0.50;;
37777;SDS011;23615;51.506;7.678;2023-07-13T00:05:07;1.95;;;0.30;;
37777;SDS011;23615;51.506;7.678;2023-07-13T00:07:32;1.80;;;0.47;;
37777;SDS011;23615;51.506;7.678;2023-07-13T00:09:58;2.60;;;0.60;;
37777;SDS011;23615;51.506;7.678;2023-07-13T00:12:25;2.53;;;0.70;;
37777;SDS011;23615;51.506;7.678;2023-07-13T00:14:56;1.38;;;0.50;;
37777;SDS011;23615;51.506;7.678;2023-07-13T00:17:23;2.58;;;0.43;;
37777;SDS011;23615;51.506;7.678;2023-07-13T00:19:49;3.83;;;0.52;;
37777;SDS011;23615;51.506;7.678;2023-07-13T00:22:14;2.00;;;0.40;;
37777;SDS011;23615;51.506;7.678;2023-07-13T00:24:40;0.63;;;0.20;;
37777;SDS011;23615;51.506;7.678;2023-07-13T00:27:06;1.58;;;0.30;;
37777;SDS011;23615;51.506;7.678;2023-07-13T00:29:35;1.48;;;0.40;;
37777;SDS011;23615;51.506;7.678;2023-07-13T00:32:05;2.27;;;0.57;;
37777;SDS011;23615;51.506;7.678;2023-07-13T00:34:31;1.50;;;0.40;;
37777;SDS011;23615;51.506;7.678;2023-07-13T00:36:57;2.80;;;0.50;;
37777;SDS011;23615;51.506;7.678;2023-07-13T00:39:23;1.97;;;0.30;;
37777;SDS011;23615;51.506;7.678;2023-07-13T00:41:49;2.23;;;0.50;;
37777;SDS011;23615;51.506;7.678;2023-07-13T00:44:15;4.20;;;0.60;;
37777;SDS011;23615;51.506;7.678;2023-07-13T00:46:41;2.70;;;0.50;;
37777;SDS011;23615;51.506;7.678;2023-07-13T00:49:08;2.20;;;0.30;;
37777;SDS011;23615;51.506;7.678;2023-07-13T00:51:39;0.95;;;0.45;;
37777;SDS011;23615;51.506;7.678;2023-07-13T00:54:11;3.15;;;0.35;;
37777;SDS011;23615;51.506;7.678;2023-07-13T00:56:40;2.30;;;0.25;;
37777;SDS011;23615;51.506;7.678;2023-07-13T00:59:08;3.97;;;0.70;;
37777;SDS011;23615;51.506;7.678;2023-07-13T01:01:36;2.47;;;0.30;;
37777;SDS011;23615;51.506;7.678;2023-07-13T01:04:02;2.37;;;0.40;;
37777;SDS011;23615;51.506;7.678;2023-07-13T01:06:27;2.63;;;0.40;;
37777;SDS011;23615;51.506;7.678;2023-07-13T01:08:53;1.30;;;0.32;;
37777;SDS011;23615;51.506;7.678;2023-07-13T01:11:21;4.63;;;0.43;;
37777;SDS011;23615;51.506;7.678;2023-07-13T01:13:49;1.20;;;0.40;;
37777;SDS011;23615;51.506;7.678;2023-07-13T01:16:18;2.63;;;0.30;;
37777;SDS011;23615;51.506;7.678;2023-07-13T01:18:49;0.88;;;0.30;;
37777;SDS011;23615;51.506;7.678;2023-07-13T01:21:14;2.30;;;0.40;;
37777;SDS011;23615;51.506;7.678;2023-07-13T01:23:39;2.37;;;0.40;;
37777;SDS011;23615;51.506;7.678;2023-07-13T01:26:05;2.47;;;0.43;;
37777;SDS011;23615;51.506;7.678;2023-07-13T01:28:30;2.00;;;0.50;;
37777;SDS011;23615;51.506;7.678;2023-07-13T01:30:56;1.20;;;0.40;;
37777;SDS011;23615;51.506;7.678;2023-07-13T01:33:23;2.67;;;0.40;;
37777;SDS011;23615;51.506;7.678;2023-07-13T01:35:48;2.33;;;0.40;;
37777;SDS011;23615;51.506;7.678;2023-07-13T01:38:14;1.90;;;0.40;;
37777;SDS011;23615;51.506;7.678;2023-07-13T01:40:42;1.55;;;0.47;;
37777;SDS011;23615;51.506;7.678;2023-07-13T01:43:08;1.88;;;0.50;;
37777;SDS011;23615;51.506;7.678;2023-07-13T01:45:33;2.00;;;0.30;;
37777;SDS011;23615;51.506;7.678;2023-07-13T01:47:59;3.50;;;0.50;;
37777;SDS011;23615;51.506;7.678;2023-07-13T01:50:25;2.00;;;0.30;;
37777;SDS011;23615;51.506;7.678;2023-07-13T01:52:51;2.03;;;0.30;;
37777;SDS011;23615;51.506;7.678;2023-07-13T01:55:16;1.83;;;0.43;;
37777;SDS011;23615;51.506;7.678;2023-07-13T01:57:41;2.33;;;0.40;;
37777;SDS011;23615;51.506;7.678;2023-07-13T02:00:08;1.10;;;0.50;;
37777;SDS011;23615;51.506;7.678;2023-07-13T02:02:34;1.42;;;0.40;;
37777;SDS011;23615;51.506;7.678;2023-07-13T02:05:00;1.70;;;0.30;;
37777;SDS011;23615;51.506;7.678;2023-07-13T02:07:25;2.00;;;0.30;;
37777;SDS011;23615;51.506;7.678;2023-07-13T02:09:50;1.30;;;0.30;;
37777;SDS011;23615;51.506;7.678;2023-07-13T02:12:16;1.70;;;0.27;;
37777;SDS011;23615;51.506;7.678;2023-07-13T02:14:41;1.40;;;0.20;;
37777;SDS011;23615;51.506;7.678;2023-07-13T02:17:06;0.67;;;0.20;;
37777;SDS011;23615;51.506;7.678;2023-07-13T02:19:31;0.93;;;0.20;;
37777;SDS011;23615;51.506;7.678;2023-07-13T02:21:57;3.47;;;0.60;;
37777;SDS011;23615;51.506;7.678;2023-07-13T02:24:23;2.47;;;0.30;;
37777;SDS011;23615;51.506;7.678;2023-07-13T02:26:48;1.55;;;0.30;;
37777;SDS011;23615;51.506;7.678;2023-07-13T02:29:14;2.00;;;0.47;;
37777;SDS011;23615;51.506;7.678;2023-07-13T02:31:39;2.00;;;0.60;;
37777;SDS011;23615;51.506;7.678;2023-07-13T02:34:04;2.00;;;0.47;;
37777;SDS011;23615;51.506;7.678;2023-07-13T02:36:31;2.80;;;0.30;;
37777;SDS011;23615;51.506;7.678;2023-07-13T02:38:57;0.90;;;0.25;;
37777;SDS011;23615;51.506;7.678;2023-07-13T02:41:26;2.20;;;0.30;;
37777;SDS011;23615;51.506;7.678;2023-07-13T02:43:51;6.20;;;0.47;;
37777;SDS011;23615;51.506;7.678;2023-07-13T02:46:17;0.90;;;0.33;;
37777;SDS011;23615;51.506;7.678;2023-07-13T02:48:44;2.47;;;0.30;;
37777;SDS011;23615;51.506;7.678;2023-07-13T02:51:09;4.35;;;0.60;;
37777;SDS011;23615;51.506;7.678;2023-07-13T02:53:35;1.30;;;0.40;;
37777;SDS011;23615;51.506;7.678;2023-07-13T02:56:01;2.05;;;0.30;;
37777;SDS011;23615;51.506;7.678;2023-07-13T02:58:26;0.75;;;0.20;;
37777;SDS011;23615;51.506;7.678;2023-07-13T03:00:51;1.17;;;0.30;;
37777;SDS011;23615;51.506;7.678;2023-07-13T03:03:17;1.40;;;0.50;;
37777;SDS011;23615;51.506;7.678;2023-07-13T03:05:43;1.93;;;0.40;;
37777;SDS011;23615;51.506;7.678;2023-07-13T03:08:10;1.65;;;0.45;;
37777;SDS011;23615;51.506;7.678;2023-07-13T03:10:36;1.02;;;0.40;;
37777;SDS011;23615;51.506;7.678;2023-07-13T03:13:03;2.35;;;0.50;;
37777;SDS011;23615;51.506;7.678;2023-07-13T03:15:28;2.45;;;0.43;;
37777;SDS011;23615;51.506;7.678;2023-07-13T03:17:54;1.85;;;0.30;;
37777;SDS011;23615;51.506;7.678;2023-07-13T03:20:19;0.70;;;0.30;;
37777;SDS011;23615;51.506;7.678;2023-07-13T03:22:45;2.10;;;0.50;;
37777;SDS011;23615;51.506;7.678;2023-07-13T03:25:10;0.50;;;0.10;;
37777;SDS011;23615;51.506;7.678;2023-07-13T03:27:36;1.00;;;0.30;;
37777;SDS011;23615;51.506;7.678;2023-07-13T03:30:03;1.13;;;0.13;;
37777;SDS011;23615;51.506;7.678;2023-07-13T03:32:31;1.45;;;0.25;;
37777;SDS011;23615;51.506;7.678;2023-07-13T03:34:57;1.43;;;0.30;;
37777;SDS011;23615;51.506;7.678;2023-07-13T03:37:22;1.90;;;0.40;;
37777;SDS011;23615;51.506;7.678;2023-07-13T03:39:47;1.60;;;0.30;;
37777;SDS011;23615;51.506;7.678;2023-07-13T03:42:13;1.07;;;0.27;;
37777;SDS011;23615;51.506;7.678;2023-07-13T03:44:39;1.10;;;0.37;;
37777;SDS011;23615;51.506;7.678;2023-07-13T03:47:05;3.35;;;0.50;;
37777;SDS011;23615;51.506;7.678;2023-07-13T03:49:33;1.77;;;0.40;;
37777;SDS011;23615;51.506;7.678;2023-07-13T03:51:58;2.10;;;0.40;;
37777;SDS011;23615;51.506;7.678;2023-07-13T03:54:24;1.30;;;0.40;;
37777;SDS011;23615;51.506;7.678;2023-07-13T03:56:49;1.33;;;0.38;;
37777;SDS011;23615;51.506;7.678;2023-07-13T03:59:14;1.83;;;0.40;;
37777;SDS011;23615;51.506;7.678;2023-07-13T04:01:39;2.60;;;0.40;;
37777;SDS011;23615;51.506;7.678;2023-07-13T04:04:05;1.40;;;0.40;;
37777;SDS011;23615;51.506;7.678;2023-07-13T04:06:30;1.80;;;0.35;;
37777;SDS011;23615;51.506;7.678;2023-07-13T04:08:57;1.75;;;0.30;;
37777;SDS011;23615;51.506;7.678;2023-07-13T04:11:25;3.05;;;0.40;;
37777;SDS011;23615;51.506;7.678;2023-07-13T04:13:53;1.40;;;0.47;;
37777;SDS011;23615;51.506;7.678;2023-07-13T04:16:18;2.07;;;0.30;;
37777;SDS011;23615;51.506;7.678;2023-07-13T04:18:45;1.00;;;0.30;;
37777;SDS011;23615;51.506;7.678;2023-07-13T04:21:11;1.70;;;0.50;;
37777;SDS011;23615;51.506;7.678;2023-07-13T04:23:37;2.17;;;0.40;;
37777;SDS011;23615;51.506;7.678;2023-07-13T04:26:03;2.30;;;0.40;;
37777;SDS011;23615;51.506;7.678;2023-07-13T04:28:29;4.47;;;0.60;;
37777;SDS011;23615;51.506;7.678;2023-07-13T04:30:55;2.33;;;0.52;;
37777;SDS011;23615;51.506;7.678;2023-07-13T04:33:21;2.83;;;0.50;;
37777;SDS011;23615;51.506;7.678;2023-07-13T04:35:47;1.80;;;0.37;;
37777;SDS011;23615;51.506;7.678;2023-07-13T04:38:14;1.73;;;0.40;;
37777;SDS011;23615;51.506;7.678;2023-07-13T04:40:42;3.13;;;0.47;;
37777;SDS011;23615;51.506;7.678;2023-07-13T04:43:08;2.70;;;0.60;;
37777;SDS011;23615;51.506;7.678;2023-07-13T04:45:33;2.43;;;0.60;;
37777;SDS011;23615;51.506;7.678;2023-07-13T04:48:00;2.70;;;0.43;;
37777;SDS011;23615;51.506;7.678;2023-07-13T04:50:25;3.30;;;0.50;;
37777;SDS011;23615;51.506;7.678;2023-07-13T04:52:50;3.90;;;0.67;;
37777;SDS011;23615;51.506;7.678;2023-07-13T04:55:16;1.90;;;0.67;;
37777;SDS011;23615;51.506;7.678;2023-07-13T04:57:41;1.80;;;0.57;;
37777;SDS011;23615;51.506;7.678;2023-07-13T05:00:07;0.83;;;0.33;;
37777;SDS011;23615;51.506;7.678;2023-07-13T05:02:33;3.90;;;0.60;;
37777;SDS011;23615;51.506;7.678;2023-07-13T05:05:00;2.13;;;0.50;;
37777;SDS011;23615;51.506;7.678;2023-07-13T05:07:25;2.23;;;0.50;;
37777;SDS011;23615;51.506;7.678;2023-07-13T05:09:51;2.58;;;0.60;;
37777;SDS011;23615;51.506;7.678;2023-07-13T05:12:17;3.23;;;0.53;;
37777;SDS011;23615;51.506;7.678;2023-07-13T05:14:42;2.87;;;0.50;;
37777;SDS011;23615;51.506;7.678;2023-07-13T05:17:07;2.47;;;0.50;;
37777;SDS011;23615;51.506;7.678;2023-07-13T05:19:33;2.40;;;0.40;;
37777;SDS011;23615;51.506;7.678;2023-07-13T05:21:58;3.17;;;0.60;;
37777;SDS011;23615;51.506;7.678;2023-07-13T05:24:24;5.37;;;0.97;;
37777;SDS011;23615;51.506;7.678;2023-07-13T05:26:49;3.70;;;0.60;;
37777;SDS011;23615;51.506;7.678;2023-07-13T05:29:14;3.10;;;0.50;;
37777;SDS011;23615;51.506;7.678;2023-07-13T05:31:40;4.27;;;0.77;;
37777;SDS011;23615;51.506;7.678;2023-07-13T05:34:05;4.27;;;0.80;;
37777;SDS011;23615;51.506;7.678;2023-07-13T05:36:30;4.20;;;0.70;;
37777;SDS011;23615;51.506;7.678;2023-07-13T05:38:55;5.40;;;0.60;;
37777;SDS011;23615;51.506;7.678;2023-07-13T05:41:21;2.60;;;0.63;;
37777;SDS011;23615;51.506;7.678;2023-07-13T05:43:46;3.97;;;0.60;;
37777;SDS011;23615;51.506;7.678;2023-07-13T05:46:11;3.60;;;0.70;;
37777;SDS011;23615;51.506;7.678;2023-07-13T05:48:37;3.10;;;0.80;;
37777;SDS011;23615;51.506;7.678;2023-07-13T05:51:02;2.97;;;0.73;;
37777;SDS011;23615;51.506;7.678;2023-07-13T05:53:27;4.47;;;0.90;;
37777;SDS011;23615;51.506;7.678;2023-07-13T05:55:53;4.50;;;0.70;;
37777;SDS011;23615;51.506;7.678;2023-07-13T05:58:19;2.30;;;0.70;;
37777;SDS011;23615;51.506;7.678;2023-07-13T06:00:45;4.37;;;0.93;;
37777;SDS011;23615;51.506;7.678;2023-07-13T06:03:11;1.73;;;0.57;;
37777;SDS011;23615;51.506;7.678;2023-07-13T06:05:36;4.10;;;0.77;;
37777;SDS011;23615;51.506;7.678;2023-07-13T06:08:03;3.92;;;1.15;;
37777;SDS011;23615;51.506;7.678;2023-07-13T06:10:29;4.63;;;1.03;;
37777;SDS011;23615;51.506;7.678;2023-07-13T06:12:57;6.03;;;1.30;;
37777;SDS011;23615;51.506;7.678;2023-07-13T06:15:23;5.90;;;1.33;;
37777;SDS011;23615;51.506;7.678;2023-07-13T06:17:48;3.92;;;1.25;;
37777;SDS011;23615;51.506;7.678;2023-07-13T06:20:13;3.83;;;1.00;;
37777;SDS011;23615;51.506;7.678;2023-07-13T06:22:39;5.87;;;1.20;;
37777;SDS011;23615;51.506;7.678;2023-07-13T06:25:04;4.90;;;1.23;;
37777;SDS011;23615;51.506;7.678;2023-07-13T06:27:30;5.10;;;1.10;;
37777;SDS011;23615;51.506;7.678;2023-07-13T06:29:55;3.33;;;1.00;;
37777;SDS011;23615;51.506;7.678;2023-07-13T06:32:21;5.80;;;1.10;;
37777;SDS011;23615;51.506;7.678;2023-07-13T06:34:46;3.63;;;0.97;;
37777;SDS011;23615;51.506;7.678;2023-07-13T06:37:11;2.00;;;0.90;;
37777;SDS011;23615;51.506;7.678;2023-07-13T06:39:36;5.03;;;1.40;;
37777;SDS011;23615;51.506;7.678;2023-07-13T06:42:02;7.00;;;1.15;;
37777;SDS011;23615;51.506;7.678;2023-07-13T06:44:27;5.00;;;1.50;;
37777;SDS011;23615;51.506;7.678;2023-07-13T06:46:53;2.20;;;0.93;;
37777;SDS011;23615;51.506;7.678;2023-07-13T06:49:18;4.70;;;1.10;;
37777;SDS011;23615;51.506;7.678;2023-07-13T06:51:43;3.43;;;1.37;;
37777;SDS011;23615;51.506;7.678;2023-07-13T06:54:09;6.63;;;1.80;;
37777;SDS011;23615;51.506;7.678;2023-07-13T06:56:34;3.87;;;1.30;;
37777;SDS011;23615;51.506;7.678;2023-07-13T06:58:59;6.40;;;1.70;;
37777;SDS011;23615;51.506;7.678;2023-07-13T07:01:25;5.35;;;1.23;;
37777;SDS011;23615;51.506;7.678;2023-07-13T07:03:50;7.88;;;1.67;;
37777;SDS011;23615;51.506;7.678;2023-07-13T07:06:17;5.37;;;1.30;;
37777;SDS011;23615;51.506;7.678;2023-07-13T07:08:44;6.53;;;1.30;;
37777;SDS011;23615;51.506;7.678;2023-07-13T07:11:13;7.90;;;1.85;;
37777;SDS011;23615;51.506;7.678;2023-07-13T07:13:41;4.20;;;1.10;;
37777;SDS011;23615;51.506;7.678;2023-07-13T07:16:07;4.60;;;0.97;;
37777;SDS011;23615;51.506;7.678;2023-07-13T07:18:33;5.15;;;0.95;;
37777;SDS011;23615;51.506;7.678;2023-07-13T07:20:59;4.95;;;1.27;;
37777;SDS011;23615;51.506;7.678;2023-07-13T07:23:24;4.33;;;0.90;;
37777;SDS011;23615;51.506;7.678;2023-07-13T07:25:50;5.17;;;1.40;;
37777;SDS011;23615;51.506;7.678;2023-07-13T07:28:16;5.90;;;1.20;;
37777;SDS011;23615;51.506;7.678;2023-07-13T07:30:45;5.88;;;1.60;;
37777;SDS011;23615;51.506;7.678;2023-07-13T07:33:11;5.80;;;1.13;;
37777;SDS011;23615;51.506;7.678;2023-07-13T07:35:37;6.57;;;1.60;;
37777;SDS011;23615;51.506;7.678;2023-07-13T07:38:03;6.30;;;1.63;;
37777;SDS011;23615;51.506;7.678;2023-07-13T07:40:28;4.60;;;1.30;;
37777;SDS011;23615;51.506;7.678;2023-07-13T07:42:54;3.93;;;1.20;;
37777;SDS011;23615;51.506;7.678;2023-07-13T07:45:19;3.08;;;1.15;;
37777;SDS011;23615;51.506;7.678;2023-07-13T07:47:45;4.95;;;0.82;;
37777;SDS011;23615;51.506;7.678;2023-07-13T07:50:11;4.87;;;1.07;;
37777;SDS011;23615;51.506;7.678;2023-07-13T07:52:36;2.85;;;0.88;;
37777;SDS011;23615;51.506;7.678;2023-07-13T07:55:01;4.97;;;1.20;;
37777;SDS011;23615;51.506;7.678;2023-07-13T07:57:29;6.10;;;1.13;;
37777;SDS011;23615;51.506;7.678;2023-07-13T07:59:54;5.47;;;1.30;;
37777;SDS011;23615;51.506;7.678;2023-07-13T08:02:20;3.57;;;1.20;;
37777;SDS011;23615;51.506;7.678;2023-07-13T08:04:45;4.77;;;1.20;;
37777;SDS011;23615;51.506;7.678;2023-07-13T08:07:10;2.37;;;0.63;;
37777;SDS011;23615;51.506;7.678;2023-07-13T08:09:36;5.77;;;1.00;;
37777;SDS011;23615;51.506;7.678;2023-07-13T08:12:01;6.63;;;1.10;;
37777;SDS011;23615;51.506;7.678;2023-07-13T08:14:26;3.35;;;0.80;;
37777;SDS011;23615;51.506;7.678;2023-07-13T08:16:52;4.47;;;0.77;;
37777;SDS011;23615;51.506;7.678;2023-07-13T08:19:18;5.68;;;1.25;;
37777;SDS011;23615;51.506;7.678;2023-07-13T08:21:44;3.63;;;0.80;;
37777;SDS011;23615;51.506;7.678;2023-07-13T08:24:09;5.00;;;0.88;;
37777;SDS011;23615;51.506;7.678;2023-07-13T08:26:34;4.83;;;0.90;;
37777;SDS011;23615;51.506;7.678;2023-07-13T08:29:00;3.93;;;1.00;;
37777;SDS011;23615;51.506;7.678;2023-07-13T08:31:25;5.23;;;1.00;;
37777;SDS011;23615;51.506;7.678;2023-07-13T08:33:50;4.37;;;0.90;;
37777;SDS011;23615;51.506;7.678;2023-07-13T08:36:16;3.27;;;0.73;;
37777;SDS011;23615;51.506;7.678;2023-07-13T08:38:41;4.47;;;0.73;;
37777;SDS011;23615;51.506;7.678;2023-07-13T08:41:11;5.10;;;1.00;;
37777;SDS011;23615;51.506;7.678;2023-07-13T08:43:38;3.92;;;0.75;;
37777;SDS011;23615;51.506;7.678;2023-07-13T08:46:08;2.63;;;1.00;;
37777;SDS011;23615;51.506;7.678;2023-07-13T08:53:49;4.28;;;1.20;;
37777;SDS011;23615;51.506;7.678;2023-07-13T08:56:18;2.92;;;0.65;;
37777;SDS011;23615;51.506;7.678;2023-07-13T08:58:48;4.45;;;1.20;;
37777;SDS011;23615;51.506;7.678;2023-07-13T09:04:23;3.03;;;0.57;;
37777;SDS011;23615;51.506;7.678;2023-07-13T09:07:01;5.40;;;0.70;;
37777;SDS011;23615;51.506;7.678;2023-07-13T09:09:43;5.10;;;0.80;;
37777;SDS011;23615;51.506;7.678;2023-07-13T09:12:19;4.07;;;0.95;;
37777;SDS011;23615;51.506;7.678;2023-07-13T09:15:04;5.60;;;0.85;;
37777;SDS011;23615;51.506;7.678;2023-07-13T09:17:51;3.75;;;0.77;;
37777;SDS011;23615;51.506;7.678;2023-07-13T09:20:25;4.72;;;1.38;;
37777;SDS011;23615;51.506;7.678;2023-07-13T09:22:55;4.07;;;0.80;;
37777;SDS011;23615;51.506;7.678;2023-07-13T09:25:27;4.72;;;1.00;;
37777;SDS011;23615;51.506;7.678;2023-07-13T09:27:56;5.50;;;1.10;;
37777;SDS011;23615;51.506;7.678;2023-07-13T09:31:24;4.25;;;0.60;;
37777;SDS011;23615;51.506;7.678;2023-07-13T09:33:37;3.85;;;0.90;;
37777;SDS011;23615;51.506;7.678;2023-07-13T09:36:05;1.63;;;0.60;;
37777;SDS011;23615;51.506;7.678;2023-07-13T09:38:43;4.00;;;0.85;;
37777;SDS011;23615;51.506;7.678;2023-07-13T09:44:12;2.95;;;0.75;;
37777;SDS011;23615;51.506;7.678;2023-07-13T09:46:46;3.10;;;0.90;;
37777;SDS011;23615;51.506;7.678;2023-07-13T09:49:17;3.38;;;0.95;;
37777;SDS011;23615;51.506;7.678;2023-07-13T09:51:42;3.38;;;0.80;;
37777;SDS011;23615;51.506;7.678;2023-07-13T09:54:18;3.63;;;0.77;;
37777;SDS011;23615;51.506;7.678;2023-07-13T09:56:45;3.35;;;0.63;;
37777;SDS011;23615;51.506;7.678;2023-07-13T09:59:30;2.28;;;0.82;;
37777;SDS011;23615;51.506;7.678;2023-07-13T10:01:57;1.95;;;0.80;;
37777;SDS011;23615;51.506;7.678;2023-07-13T10:04:28;3.27;;;0.83;;
37777;SDS011;23615;51.506;7.678;2023-07-13T10:07:06;1.85;;;0.70;;
37777;SDS011;23615;51.506;7.678;2023-07-13T10:09:34;2.80;;;0.80;;
37777;SDS011;23615;51.506;7.678;2023-07-13T10:11:59;3.08;;;0.90;;
37777;SDS011;23615;51.506;7.678;2023-07-13T10:14:25;3.37;;;0.83;;
37777;SDS011;23615;51.506;7.678;2023-07-13T10:16:53;3.40;;;0.93;;
37777;SDS011;23615;51.506;7.678;2023-07-13T10:19:27;3.53;;;0.77;;
37777;SDS011;23615;51.506;7.678;2023-07-13T10:21:58;5.25;;;0.88;;
37777;SDS011;23615;51.506;7.678;2023-07-13T10:24:30;3.33;;;0.90;;
37777;SDS011;23615;51.506;7.678;2023-07-13T10:26:58;2.92;;;0.90;;
37777;SDS011;23615;51.506;7.678;2023-07-13T10:29:29;3.40;;;0.65;;
37777;SDS011;23615;51.506;7.678;2023-07-13T10:32:01;2.72;;;0.90;;
37777;SDS011;23615;51.506;7.678;2023-07-13T10:34:27;2.88;;;0.70;;
37777;SDS011;23615;51.506;7.678;2023-07-13T10:36:53;3.55;;;0.80;;
37777;SDS011;23615;51.506;7.678;2023-07-13T10:39:19;2.78;;;0.70;;
37777;SDS011;23615;51.506;7.678;2023-07-13T10:41:49;3.20;;;0.87;;
37777;SDS011;23615;51.506;7.678;2023-07-13T10:44:21;2.88;;;1.00;;
37777;SDS011;23615;51.506;7.678;2023-07-13T10:46:51;4.10;;;0.80;;
37777;SDS011;23615;51.506;7.678;2023-07-13T10:49:22;3.78;;;0.80;;
37777;SDS011;23615;51.506;7.678;2023-07-13T10:51:48;4.90;;;0.85;;
37777;SDS011;23615;51.506;7.678;2023-07-13T10:54:15;1.40;;;0.70;;
37777;SDS011;23615;51.506;7.678;2023-07-13T10:56:43;4.35;;;0.68;;
37777;SDS011;23615;51.506;7.678;2023-07-13T11:04:31;3.47;;;0.80;;
37777;SDS011;23615;51.506;7.678;2023-07-13T11:07:10;2.72;;;0.65;;
37777;SDS011;23615;51.506;7.678;2023-07-13T11:09:44;3.38;;;0.82;;
37777;SDS011;23615;51.506;7.678;2023-07-13T11:20:07;3.27;;;0.80;;
37777;SDS011;23615;51.506;7.678;2023-07-13T11:25:29;2.55;;;0.88;;
37777;SDS011;23615;51.506;7.678;2023-07-13T11:28:06;4.20;;;0.80;;
37777;SDS011;23615;51.506;7.678;2023-07-13T11:30:35;4.45;;;0.70;;
37777;SDS011;23615;51.506;7.678;2023-07-13T11:33:10;3.65;;;0.60;;
37777;SDS011;23615;51.506;7.678;2023-07-13T11:41:07;3.58;;;0.60;;
37777;SDS011;23615;51.506;7.678;2023-07-13T11:43:40;2.35;;;0.80;;
37777;SDS011;23615;51.506;7.678;2023-07-13T11:46:12;5.00;;;0.68;;
37777;SDS011;23615;51.506;7.678;2023-07-13T11:48:39;3.70;;;0.90;;
37777;SDS011;23615;51.506;7.678;2023-07-13T11:51:05;4.13;;;0.50;;
37777;SDS011;23615;51.506;7.678;2023-07-13T11:53:34;4.32;;;0.80;;
37777;SDS011;23615;51.506;7.678;2023-07-13T11:56:10;3.97;;;0.82;;
37777;SDS011;23615;51.506;7.678;2023-07-13T11:58:35;2.15;;;0.85;;
37777;SDS011;23615;51.506;7.678;2023-07-13T12:01:01;3.40;;;0.52;;
37777;SDS011;23615;51.506;7.678;2023-07-13T12:03:29;2.15;;;0.43;;
37777;SDS011;23615;51.506;7.678;2023-07-13T12:05:58;4.88;;;0.60;;
37777;SDS011;23615;51.506;7.678;2023-07-13T12:08:26;2.60;;;0.60;;
37777;SDS011;23615;51.506;7.678;2023-07-13T12:11:03;2.70;;;0.60;;
37777;SDS011;23615;51.506;7.678;2023-07-13T12:13:35;2.72;;;0.77;;
37777;SDS011;23615;51.506;7.678;2023-07-13T12:16:02;2.55;;;0.60;;
37777;SDS011;23615;51.506;7.678;2023-07-13T12:18:36;2.78;;;0.60;;
37777;SDS011;23615;51.506;7.678;2023-07-13T12:21:02;1.73;;;0.40;;
37777;SDS011;23615;51.506;7.678;2023-07-13T12:23:29;2.60;;;0.70;;
37777;SDS011;23615;51.506;7.678;2023-07-13T12:25:57;1.27;;;0.40;;
37777;SDS011;23615;51.506;7.678;2023-07-13T12:31:04;2.17;;;0.70;;
37777;SDS011;23615;51.506;7.678;2023-07-13T12:33:31;2.17;;;0.50;;
37777;SDS011;23615;51.506;7.678;2023-07-13T12:35:59;2.53;;;0.40;;
37777;SDS011;23615;51.506;7.678;2023-07-13T12:38:27;2.65;;;0.30;;
37777;SDS011;23615;51.506;7.678;2023-07-13T12:40:53;2.00;;;0.45;;
37777;SDS011;23615;51.506;7.678;2023-07-13T12:43:22;2.97;;;0.60;;
37777;SDS011;23615;51.506;7.678;2023-07-13T12:46:23;3.25;;;0.55;;
37777;SDS011;23615;51.506;7.678;2023-07-13T12:48:42;2.63;;;0.40;;
37777;SDS011;23615;51.506;7.678;2023-07-13T12:51:10;1.73;;;0.30;;
37777;SDS011;23615;51.506;7.678;2023-07-13T12:53:43;3.22;;;0.70;;
37777;SDS011;23615;51.506;7.678;2023-07-13T12:56:17;1.33;;;0.55;;
37777;SDS011;23615;51.506;7.678;2023-07-13T12:58:46;2.03;;;0.40;;
37777;SDS011;23615;51.506;7.678;2023-07-13T13:01:15;2.10;;;0.43;;
37777;SDS011;23615;51.506;7.678;2023-07-13T13:03:46;2.20;;;0.60;;
37777;SDS011;23615;51.506;7.678;2023-07-13T13:08:43;2.35;;;0.32;;
37777;SDS011;23615;51.506;7.678;2023-07-13T13:11:10;4.13;;;0.50;;
37777;SDS011;23615;51.506;7.678;2023-07-13T13:13:35;3.00;;;0.50;;
37777;SDS011;23615;51.506;7.678;2023-07-13T13:16:01;3.27;;;0.57;;
37777;SDS011;23615;51.506;7.678;2023-07-13T13:18:45;2.58;;;0.50;;
37777;SDS011;23615;51.506;7.678;2023-07-13T13:21:10;0.70;;;0.30;;
37777;SDS011;23615;51.506;7.678;2023-07-13T13:23:36;4.07;;;0.40;;
37777;SDS011;23615;51.506;7.678;2023-07-13T13:26:02;1.50;;;0.50;;
37777;SDS011;23615;51.506;7.678;2023-07-13T13:28:28;1.73;;;0.50;;
37777;SDS011;23615;51.506;7.678;2023-07-13T13:30:54;2.13;;;0.60;;
37777;SDS011;23615;51.506;7.678;2023-07-13T13:33:20;2.58;;;0.50;;
37777;SDS011;23615;51.506;7.678;2023-07-13T13:35:46;2.95;;;0.55;;
37777;SDS011;23615;51.506;7.678;2023-07-13T13:38:13;2.55;;;0.43;;
37777;SDS011;23615;51.506;7.678;2023-07-13T13:40:44;2.13;;;0.55;;
37777;SDS011;23615;51.506;7.678;2023-07-13T13:43:28;3.50;;;0.45;;
37777;SDS011;23615;51.506;7.678;2023-07-13T13:45:55;2.72;;;0.50;;
37777;SDS011;23615;51.506;7.678;2023-07-13T13:48:31;2.15;;;0.40;;
37777;SDS011;23615;51.506;7.678;2023-07-13T13:50:58;2.30;;;0.52;;
37777;SDS011;23615;51.506;7.678;2023-07-13T13:53:25;2.63;;;0.50;;
37777;SDS011;23615;51.506;7.678;2023-07-13T13:55:50;2.20;;;0.30;;
37777;SDS011;23615;51.506;7.678;2023-07-13T13:58:17;1.40;;;0.40;;
37777;SDS011;23615;51.506;7.678;2023-07-13T14:00:47;4.53;;;0.90;;
37777;SDS011;23615;51.506;7.678;2023-07-13T14:03:14;6.30;;;0.70;;
37777;SDS011;23615;51.506;7.678;2023-07-13T14:05:42;5.55;;;1.05;;
37777;SDS011;23615;51.506;7.678;2023-07-13T14:08:14;8.90;;;1.45;;
37777;SDS011;23615;51.506;7.678;2023-07-13T14:10:41;3.00;;;1.10;;
37777;SDS011;23615;51.506;7.678;2023-07-13T14:13:08;6.32;;;2.17;;
37777;SDS011;23615;51.506;7.678;2023-07-13T14:15:43;4.13;;;1.80;;
37777;SDS011;23615;51.506;7.678;2023-07-13T14:18:08;3.50;;;1.07;;
37777;SDS011;23615;51.506;7.678;2023-07-13T14:20:34;2.60;;;1.30;;
37777;SDS011;23615;51.506;7.678;2023-07-13T14:22:59;1.95;;;1.33;;
37777;SDS011;23615;51.506;7.678;2023-07-13T14:25:24;2.67;;;1.33;;
37777;SDS011;23615;51.506;7.678;2023-07-13T14:27:53;2.63;;;1.50;;
37777;SDS011;23615;51.506;7.678;2023-07-13T14:30:23;2.83;;;1.65;;
37777;SDS011;23615;51.506;7.678;2023-07-13T14:32:49;3.20;;;1.40;;
37777;SDS011;23615;51.506;7.678;2023-07-13T14:35:16;3.87;;;1.43;;
37777;SDS011;23615;51.506;7.678;2023-07-13T14:37:46;2.58;;;1.38;;
37777;SDS011;23615;51.506;7.678;2023-07-13T14:40:29;3.65;;;1.48;;
37777;SDS011;23615;51.506;7.678;2023-07-13T14:48:49;2.97;;;1.73;;
37777;SDS011;23615;51.506;7.678;2023-07-13T14:51:14;3.77;;;1.80;;
37777;SDS011;23615;51.506;7.678;2023-07-13T14:53:40;3.13;;;1.20;;
37777;SDS011;23615;51.506;7.678;2023-07-13T14:56:10;4.10;;;2.00;;
37777;SDS011;23615;51.506;7.678;2023-07-13T14:58:36;3.50;;;1.42;;
37777;SDS011;23615;51.506;7.678;2023-07-13T15:01:01;3.38;;;1.27;;
37777;SDS011;23615;51.506;7.678;2023-07-13T15:03:27;3.23;;;1.53;;
37777;SDS011;23615;51.506;7.678;2023-07-13T15:05:52;3.17;;;1.57;;
37777;SDS011;23615;51.506;7.678;2023-07-13T15:08:18;3.20;;;1.50;;
37777;SDS011;23615;51.506;7.678;2023-07-13T15:10:43;1.53;;;1.43;;
37777;SDS011;23615;51.506;7.678;2023-07-13T15:13:13;3.43;;;1.50;;
37777;SDS011;23615;51.506;7.678;2023-07-13T15:15:40;3.33;;;1.85;;
37777;SDS011;23615;51.506;7.678;2023-07-13T15:18:10;3.53;;;1.55;;
37777;SDS011;23615;51.506;7.678;2023-07-13T15:20:36;3.28;;;1.80;;
37777;SDS011;23615;51.506;7.678;2023-07-13T15:23:02;3.57;;;1.50;;
37777;SDS011;23615;51.506;7.678;2023-07-13T15:25:29;5.13;;;1.38;;
37777;SDS011;23615;51.506;7.678;2023-07-13T15:27:58;3.45;;;1.70;;
37777;SDS011;23615;51.506;7.678;2023-07-13T15:30:28;3.88;;;1.70;;
37777;SDS011;23615;51.506;7.678;2023-07-13T15:32:56;7.67;;;1.90;;